Disclaimer

Please do not use the information listed here in-flight or in-navigation, as they are not provided to us by the airports but are provided by volunteers, so they might be outdated.

Search


Regions


Airport information page

No radio frequency information is available.

Airport informations:
Latitude: 25° 00' 01.22" S
Longitude: 053° 30' 02.75" W
Elevation: 2473 feet - 754 meters
Operating hours: From sunrise to sunset (SR-SS)
Operating agency: Civil government, landing fees and diplomatic clearance may be required
Timezone: UTC-3(-2DT)
Fuel: Jet A1, without icing nhibitor.

100/130 octane gasoline, leaded, MIL-L-5572F (GREEN)

Runway information:
15/33 - 5299 x 98 feet< - >1615 x 30 meters

Recent METARs:
SBCA 190200Z 18008KT 8000 BKN002 BKN070 18/16 Q1017

Airport on the map: